sensor_id;sensor_type;location;lat;lon;timestamp;temperature;humidity
8957;DHT22;4513;50.054;8.230;2022-10-24T00:00:31;14.00;99.90
8957;DHT22;4513;50.054;8.230;2022-10-24T00:02:58;13.90;99.90
8957;DHT22;4513;50.054;8.230;2022-10-24T00:05:25;14.00;99.90
8957;DHT22;4513;50.054;8.230;2022-10-24T00:07:52;13.90;99.90
8957;DHT22;4513;50.054;8.230;2022-10-24T00:10:19;14.00;99.90
8957;DHT22;4513;50.054;8.230;2022-10-24T00:12:47;13.90;99.90
8957;DHT22;4513;50.054;8.230;2022-10-24T00:15:14;13.80;99.90
8957;DHT22;4513;50.054;8.230;2022-10-24T00:17:43;13.60;99.90
8957;DHT22;4513;50.054;8.230;2022-10-24T00:20:10;13.50;99.90
8957;DHT22;4513;50.054;8.230;2022-10-24T00:22:38;13.40;99.90
8957;DHT22;4513;50.054;8.230;2022-10-24T00:25:05;13.50;99.90
8957;DHT22;4513;50.054;8.230;2022-10-24T00:27:33;13.50;99.90
8957;DHT22;4513;50.054;8.230;2022-10-24T00:29:59;13.50;99.90
8957;DHT22;4513;50.054;8.230;2022-10-24T00:32:26;13.50;99.90
8957;DHT22;4513;50.054;8.230;2022-10-24T00:34:54;13.50;99.90
8957;DHT22;4513;50.054;8.230;2022-10-24T00:37:21;13.60;99.90
8957;DHT22;4513;50.054;8.230;2022-10-24T00:39:48;13.50;99.90
8957;DHT22;4513;50.054;8.230;2022-10-24T00:42:15;13.50;99.90
8957;DHT22;4513;50.054;8.230;2022-10-24T00:44:42;13.50;99.90
8957;DHT22;4513;50.054;8.230;2022-10-24T00:47:11;13.50;99.90
8957;DHT22;4513;50.054;8.230;2022-10-24T00:49:44;13.50;99.90
8957;DHT22;4513;50.054;8.230;2022-10-24T00:52:15;13.40;99.90
8957;DHT22;4513;50.054;8.230;2022-10-24T00:54:43;13.20;99.90
8957;DHT22;4513;50.054;8.230;2022-10-24T00:57:15;13.00;99.90
8957;DHT22;4513;50.054;8.230;2022-10-24T00:59:47;13.00;99.90
8957;DHT22;4513;50.054;8.230;2022-10-24T01:02:15;13.00;99.90
8957;DHT22;4513;50.054;8.230;2022-10-24T01:04:41;12.90;99.90
8957;DHT22;4513;50.054;8.230;2022-10-24T01:07:28;13.00;99.90
8957;DHT22;4513;50.054;8.230;2022-10-24T01:10:12;13.20;99.90
8957;DHT22;4513;50.054;8.230;2022-10-24T01:12:49;13.30;99.90
8957;DHT22;4513;50.054;8.230;2022-10-24T01:15:21;13.20;99.90
8957;DHT22;4513;50.054;8.230;2022-10-24T01:17:56;13.20;99.90
8957;DHT22;4513;50.054;8.230;2022-10-24T01:20:50;13.10;99.90
8957;DHT22;4513;50.054;8.230;2022-10-24T01:23:42;13.30;99.90
8957;DHT22;4513;50.054;8.230;2022-10-24T01:26:33;13.30;99.90
8957;DHT22;4513;50.054;8.230;2022-10-24T01:29:12;13.30;99.90
8957;DHT22;4513;50.054;8.230;2022-10-24T01:31:46;13.40;99.90
8957;DHT22;4513;50.054;8.230;2022-10-24T01:34:18;13.40;99.90
8957;DHT22;4513;50.054;8.230;2022-10-24T01:36:52;13.40;99.90
8957;DHT22;4513;50.054;8.230;2022-10-24T01:39:22;13.30;99.90
8957;DHT22;4513;50.054;8.230;2022-10-24T01:41:54;13.20;99.90
8957;DHT22;4513;50.054;8.230;2022-10-24T01:44:25;13.20;99.90
8957;DHT22;4513;50.054;8.230;2022-10-24T01:46:58;13.30;99.90
8957;DHT22;4513;50.054;8.230;2022-10-24T01:49:31;13.20;99.90
8957;DHT22;4513;50.054;8.230;2022-10-24T01:52:03;13.10;99.90
8957;DHT22;4513;50.054;8.230;2022-10-24T01:54:31;13.00;99.90
8957;DHT22;4513;50.054;8.230;2022-10-24T01:56:59;12.90;99.90
8957;DHT22;4513;50.054;8.230;2022-10-24T01:59:42;12.90;99.90
8957;DHT22;4513;50.054;8.230;2022-10-24T02:02:14;12.90;99.90
8957;DHT22;4513;50.054;8.230;2022-10-24T02:04:45;13.00;99.90
8957;DHT22;4513;50.054;8.230;2022-10-24T02:07:15;13.00;99.90
8957;DHT22;4513;50.054;8.230;2022-10-24T02:09:43;13.10;99.90
8957;DHT22;4513;50.054;8.230;2022-10-24T02:12:13;13.00;99.90
8957;DHT22;4513;50.054;8.230;2022-10-24T02:14:45;12.90;99.90
8957;DHT22;4513;50.054;8.230;2022-10-24T02:17:13;12.80;99.90
8957;DHT22;4513;50.054;8.230;2022-10-24T02:19:41;12.70;99.90
8957;DHT22;4513;50.054;8.230;2022-10-24T02:22:13;12.80;99.90
8957;DHT22;4513;50.054;8.230;2022-10-24T02:24:44;12.90;99.90
8957;DHT22;4513;50.054;8.230;2022-10-24T02:27:16;12.90;99.90
8957;DHT22;4513;50.054;8.230;2022-10-24T02:29:49;12.90;99.90
8957;DHT22;4513;50.054;8.230;2022-10-24T02:32:23;12.80;99.90
8957;DHT22;4513;50.054;8.230;2022-10-24T02:34:51;12.80;99.90
8957;DHT22;4513;50.054;8.230;2022-10-24T02:37:18;12.60;99.90
8957;DHT22;4513;50.054;8.230;2022-10-24T02:39:46;12.60;99.90
8957;DHT22;4513;50.054;8.230;2022-10-24T02:42:15;12.40;99.90
8957;DHT22;4513;50.054;8.230;2022-10-24T02:44:43;12.40;99.90
8957;DHT22;4513;50.054;8.230;2022-10-24T02:47:12;12.40;99.90
8957;DHT22;4513;50.054;8.230;2022-10-24T02:49:41;12.40;99.90
8957;DHT22;4513;50.054;8.230;2022-10-24T02:52:08;12.40;99.90
8957;DHT22;4513;50.054;8.230;2022-10-24T02:54:37;12.50;99.90
8957;DHT22;4513;50.054;8.230;2022-10-24T02:57:04;12.40;99.90
8957;DHT22;4513;50.054;8.230;2022-10-24T02:59:31;12.40;99.90
8957;DHT22;4513;50.054;8.230;2022-10-24T03:01:57;12.40;99.90
8957;DHT22;4513;50.054;8.230;2022-10-24T03:04:24;12.30;99.90
8957;DHT22;4513;50.054;8.230;2022-10-24T03:06:53;12.40;99.90
8957;DHT22;4513;50.054;8.230;2022-10-24T03:09:19;12.50;99.90
8957;DHT22;4513;50.054;8.230;2022-10-24T03:11:46;12.50;99.90
8957;DHT22;4513;50.054;8.230;2022-10-24T03:14:13;12.50;99.90
8957;DHT22;4513;50.054;8.230;2022-10-24T03:16:40;12.50;99.90
8957;DHT22;4513;50.054;8.230;2022-10-24T03:19:06;12.50;99.90
8957;DHT22;4513;50.054;8.230;2022-10-24T03:21:33;12.50;99.90
8957;DHT22;4513;50.054;8.230;2022-10-24T03:24:02;12.60;99.90
8957;DHT22;4513;50.054;8.230;2022-10-24T03:26:29;12.60;99.90
8957;DHT22;4513;50.054;8.230;2022-10-24T03:28:56;12.60;99.90
8957;DHT22;4513;50.054;8.230;2022-10-24T03:31:23;12.50;99.90
8957;DHT22;4513;50.054;8.230;2022-10-24T03:33:50;12.60;99.90
8957;DHT22;4513;50.054;8.230;2022-10-24T03:36:18;12.50;99.90
8957;DHT22;4513;50.054;8.230;2022-10-24T03:38:44;12.60;99.90
8957;DHT22;4513;50.054;8.230;2022-10-24T03:41:13;12.60;99.90
8957;DHT22;4513;50.054;8.230;2022-10-24T03:43:39;12.70;99.90
8957;DHT22;4513;50.054;8.230;2022-10-24T03:46:06;12.90;99.90
8957;DHT22;4513;50.054;8.230;2022-10-24T03:48:33;13.00;99.90
8957;DHT22;4513;50.054;8.230;2022-10-24T03:51:00;12.90;99.90
8957;DHT22;4513;50.054;8.230;2022-10-24T03:53:27;12.70;99.90
8957;DHT22;4513;50.054;8.230;2022-10-24T03:55:53;12.60;99.90
8957;DHT22;4513;50.054;8.230;2022-10-24T03:58:23;12.60;99.90
8957;DHT22;4513;50.054;8.230;2022-10-24T04:00:50;12.60;99.90
8957;DHT22;4513;50.054;8.230;2022-10-24T04:03:18;12.60;99.90
8957;DHT22;4513;50.054;8.230;2022-10-24T04:05:45;12.70;99.90
8957;DHT22;4513;50.054;8.230;2022-10-24T04:08:12;12.60;99.90
8957;DHT22;4513;50.054;8.230;2022-10-24T04:10:39;12.60;99.90
8957;DHT22;4513;50.054;8.230;2022-10-24T04:13:05;12.70;99.90
8957;DHT22;4513;50.054;8.230;2022-10-24T04:15:34;12.80;99.90
8957;DHT22;4513;50.054;8.230;2022-10-24T04:18:00;12.90;99.90
8957;DHT22;4513;50.054;8.230;2022-10-24T04:20:27;13.10;99.90
8957;DHT22;4513;50.054;8.230;2022-10-24T04:22:54;13.00;99.90
8957;DHT22;4513;50.054;8.230;2022-10-24T04:25:21;13.10;99.90
8957;DHT22;4513;50.054;8.230;2022-10-24T04:27:48;13.10;99.90
8957;DHT22;4513;50.054;8.230;2022-10-24T04:30:15;13.00;99.90
8957;DHT22;4513;50.054;8.230;2022-10-24T04:32:43;12.90;99.90
8957;DHT22;4513;50.054;8.230;2022-10-24T04:35:16;12.80;99.90
8957;DHT22;4513;50.054;8.230;2022-10-24T04:37:43;12.80;99.90
8957;DHT22;4513;50.054;8.230;2022-10-24T04:40:10;12.80;99.90
8957;DHT22;4513;50.054;8.230;2022-10-24T04:42:37;12.90;99.90
8957;DHT22;4513;50.054;8.230;2022-10-24T04:45:05;12.90;99.90
8957;DHT22;4513;50.054;8.230;2022-10-24T04:47:32;13.00;99.90
8957;DHT22;4513;50.054;8.230;2022-10-24T04:50:00;12.90;99.90
8957;DHT22;4513;50.054;8.230;2022-10-24T04:52:27;12.90;99.90
8957;DHT22;4513;50.054;8.230;2022-10-24T04:54:53;13.00;99.90
8957;DHT22;4513;50.054;8.230;2022-10-24T04:57:20;13.00;99.90
8957;DHT22;4513;50.054;8.230;2022-10-24T04:59:47;12.90;99.90
8957;DHT22;4513;50.054;8.230;2022-10-24T05:02:14;12.90;99.90
8957;DHT22;4513;50.054;8.230;2022-10-24T05:04:41;12.80;99.90
8957;DHT22;4513;50.054;8.230;2022-10-24T05:07:09;12.90;99.90
8957;DHT22;4513;50.054;8.230;2022-10-24T05:09:36;12.90;99.90
8957;DHT22;4513;50.054;8.230;2022-10-24T05:12:04;12.80;99.90
8957;DHT22;4513;50.054;8.230;2022-10-24T05:14:30;12.90;99.90
8957;DHT22;4513;50.054;8.230;2022-10-24T05:16:57;12.80;99.90
8957;DHT22;4513;50.054;8.230;2022-10-24T05:19:24;12.80;99.90
8957;DHT22;4513;50.054;8.230;2022-10-24T05:21:51;12.90;99.90
8957;DHT22;4513;50.054;8.230;2022-10-24T05:24:19;12.80;99.90
8957;DHT22;4513;50.054;8.230;2022-10-24T05:26:46;12.70;99.90
8957;DHT22;4513;50.054;8.230;2022-10-24T05:29:14;12.70;99.90
8957;DHT22;4513;50.054;8.230;2022-10-24T05:31:41;12.70;99.90
8957;DHT22;4513;50.054;8.230;2022-10-24T05:34:08;12.50;99.90
8957;DHT22;4513;50.054;8.230;2022-10-24T05:36:35;12.50;99.90
8957;DHT22;4513;50.054;8.230;2022-10-24T05:39:01;12.50;99.90
8957;DHT22;4513;50.054;8.230;2022-10-24T05:41:30;12.50;99.90
8957;DHT22;4513;50.054;8.230;2022-10-24T05:43:57;12.50;99.90
8957;DHT22;4513;50.054;8.230;2022-10-24T05:46:24;12.40;99.90
8957;DHT22;4513;50.054;8.230;2022-10-24T05:48:51;12.40;99.90
8957;DHT22;4513;50.054;8.230;2022-10-24T05:51:17;12.30;99.90
8957;DHT22;4513;50.054;8.230;2022-10-24T05:53:44;12.30;99.90
8957;DHT22;4513;50.054;8.230;2022-10-24T05:56:11;12.30;99.90
8957;DHT22;4513;50.054;8.230;2022-10-24T05:58:39;12.30;99.90
8957;DHT22;4513;50.054;8.230;2022-10-24T06:01:06;12.20;99.90
8957;DHT22;4513;50.054;8.230;2022-10-24T06:03:33;12.20;99.90
8957;DHT22;4513;50.054;8.230;2022-10-24T06:06:03;12.30;99.90
8957;DHT22;4513;50.054;8.230;2022-10-24T06:08:30;12.20;99.90
8957;DHT22;4513;50.054;8.230;2022-10-24T06:10:57;12.30;99.90
8957;DHT22;4513;50.054;8.230;2022-10-24T06:13:24;12.20;99.90
8957;DHT22;4513;50.054;8.230;2022-10-24T06:15:52;12.30;99.90
8957;DHT22;4513;50.054;8.230;2022-10-24T06:18:19;12.20;99.90
8957;DHT22;4513;50.054;8.230;2022-10-24T06:20:45;12.20;99.90
8957;DHT22;4513;50.054;8.230;2022-10-24T06:23:12;12.20;99.90
8957;DHT22;4513;50.054;8.230;2022-10-24T06:25:40;12.20;99.90
8957;DHT22;4513;50.054;8.230;2022-10-24T06:28:07;12.30;99.90
8957;DHT22;4513;50.054;8.230;2022-10-24T06:30:34;12.30;99.90
8957;DHT22;4513;50.054;8.230;2022-10-24T06:33:02;12.20;99.90
8957;DHT22;4513;50.054;8.230;2022-10-24T06:35:29;12.30;99.90
8957;DHT22;4513;50.054;8.230;2022-10-24T06:37:56;12.30;99.90
8957;DHT22;4513;50.054;8.230;2022-10-24T06:40:23;12.30;99.90
8957;DHT22;4513;50.054;8.230;2022-10-24T06:42:50;12.30;99.90
8957;DHT22;4513;50.054;8.230;2022-10-24T06:45:17;12.40;99.90
8957;DHT22;4513;50.054;8.230;2022-10-24T06:47:45;12.50;99.90
8957;DHT22;4513;50.054;8.230;2022-10-24T06:50:14;12.50;99.90
8957;DHT22;4513;50.054;8.230;2022-10-24T06:52:40;12.60;99.90
8957;DHT22;4513;50.054;8.230;2022-10-24T06:55:08;12.50;99.90
8957;DHT22;4513;50.054;8.230;2022-10-24T06:57:35;12.50;99.90
8957;DHT22;4513;50.054;8.230;2022-10-24T07:00:04;12.60;99.90
8957;DHT22;4513;50.054;8.230;2022-10-24T07:02:36;12.70;99.90
8957;DHT22;4513;50.054;8.230;2022-10-24T07:05:03;12.70;99.90
8957;DHT22;4513;50.054;8.230;2022-10-24T07:07:31;12.80;99.90
8957;DHT22;4513;50.054;8.230;2022-10-24T07:09:58;12.70;99.90
8957;DHT22;4513;50.054;8.230;2022-10-24T07:12:25;12.70;99.90
8957;DHT22;4513;50.054;8.230;2022-10-24T07:14:52;12.60;99.90
8957;DHT22;4513;50.054;8.230;2022-10-24T07:17:19;12.70;99.90
8957;DHT22;4513;50.054;8.230;2022-10-24T07:19:51;12.80;99.90
8957;DHT22;4513;50.054;8.230;2022-10-24T07:22:18;12.80;99.90
8957;DHT22;4513;50.054;8.230;2022-10-24T07:24:51;12.90;99.90
8957;DHT22;4513;50.054;8.230;2022-10-24T07:27:18;13.00;99.90
8957;DHT22;4513;50.054;8.230;2022-10-24T07:29:45;13.10;99.90
8957;DHT22;4513;50.054;8.230;2022-10-24T07:32:12;13.20;99.90
8957;DHT22;4513;50.054;8.230;2022-10-24T07:34:39;13.30;99.90
8957;DHT22;4513;50.054;8.230;2022-10-24T07:37:06;13.40;99.90
8957;DHT22;4513;50.054;8.230;2022-10-24T07:39:33;13.50;99.90
8957;DHT22;4513;50.054;8.230;2022-10-24T07:42:02;13.60;99.90
8957;DHT22;4513;50.054;8.230;2022-10-24T07:44:29;13.70;99.90
8957;DHT22;4513;50.054;8.230;2022-10-24T07:46:56;13.90;99.90
8957;DHT22;4513;50.054;8.230;2022-10-24T07:49:23;13.90;99.90
8957;DHT22;4513;50.054;8.230;2022-10-24T07:51:50;14.10;99.90
8957;DHT22;4513;50.054;8.230;2022-10-24T07:54:17;14.10;99.90
8957;DHT22;4513;50.054;8.230;2022-10-24T07:56:43;14.30;99.90
8957;DHT22;4513;50.054;8.230;2022-10-24T07:59:12;14.40;99.90
8957;DHT22;4513;50.054;8.230;2022-10-24T08:01:39;14.60;99.90
8957;DHT22;4513;50.054;8.230;2022-10-24T08:04:06;14.70;99.90
8957;DHT22;4513;50.054;8.230;2022-10-24T08:06:33;14.80;99.90
8957;DHT22;4513;50.054;8.230;2022-10-24T08:09:02;15.00;99.90
8957;DHT22;4513;50.054;8.230;2022-10-24T08:11:29;15.10;99.90
8957;DHT22;4513;50.054;8.230;2022-10-24T08:13:57;15.10;99.90
8957;DHT22;4513;50.054;8.230;2022-10-24T08:16:28;15.20;99.90
8957;DHT22;4513;50.054;8.230;2022-10-24T08:18:57;15.30;99.90
8957;DHT22;4513;50.054;8.230;2022-10-24T08:21:24;15.40;99.90
8957;DHT22;4513;50.054;8.230;2022-10-24T08:23:53;15.60;99.90
8957;DHT22;4513;50.054;8.230;2022-10-24T08:26:22;15.60;99.90
8957;DHT22;4513;50.054;8.230;2022-10-24T08:28:49;15.60;99.90
8957;DHT22;4513;50.054;8.230;2022-10-24T08:31:18;15.70;99.90
8957;DHT22;4513;50.054;8.230;2022-10-24T08:33:47;15.80;99.90
8957;DHT22;4513;50.054;8.230;2022-10-24T08:36:18;15.90;99.90
8957;DHT22;4513;50.054;8.230;2022-10-24T08:38:45;16.10;99.90
8957;DHT22;4513;50.054;8.230;2022-10-24T08:41:16;16.20;99.90
8957;DHT22;4513;50.054;8.230;2022-10-24T08:43:45;16.20;99.90
8957;DHT22;4513;50.054;8.230;2022-10-24T08:46:36;16.40;99.90
8957;DHT22;4513;50.054;8.230;2022-10-24T08:49:14;16.70;99.90
8957;DHT22;4513;50.054;8.230;2022-10-24T08:51:46;17.00;99.90
8957;DHT22;4513;50.054;8.230;2022-10-24T08:54:17;17.10;99.90
8957;DHT22;4513;50.054;8.230;2022-10-24T08:56:47;16.90;99.90
8957;DHT22;4513;50.054;8.230;2022-10-24T08:59:14;17.00;99.90
8957;DHT22;4513;50.054;8.230;2022-10-24T09:01:43;17.00;99.90
8957;DHT22;4513;50.054;8.230;2022-10-24T09:04:16;17.00;99.90
8957;DHT22;4513;50.054;8.230;2022-10-24T09:06:45;17.00;99.90
8957;DHT22;4513;50.054;8.230;2022-10-24T09:09:18;17.10;99.90
8957;DHT22;4513;50.054;8.230;2022-10-24T09:11:50;17.30;99.90
8957;DHT22;4513;50.054;8.230;2022-10-24T09:14:19;17.60;99.90
8957;DHT22;4513;50.054;8.230;2022-10-24T09:16:51;17.80;99.90
8957;DHT22;4513;50.054;8.230;2022-10-24T09:19:22;18.30;99.90
8957;DHT22;4513;50.054;8.230;2022-10-24T09:21:51;18.90;99.90
8957;DHT22;4513;50.054;8.230;2022-10-24T09:24:26;19.50;99.90
8957;DHT22;4513;50.054;8.230;2022-10-24T09:26:54;20.50;99.90
8957;DHT22;4513;50.054;8.230;2022-10-24T09:29:21;21.70;99.90
8957;DHT22;4513;50.054;8.230;2022-10-24T09:31:48;22.70;99.90
8957;DHT22;4513;50.054;8.230;2022-10-24T09:34:15;23.30;99.90
8957;DHT22;4513;50.054;8.230;2022-10-24T09:36:44;23.10;99.90
8957;DHT22;4513;50.054;8.230;2022-10-24T09:39:38;21.50;99.90
8957;DHT22;4513;50.054;8.230;2022-10-24T09:42:04;20.90;99.90
8957;DHT22;4513;50.054;8.230;2022-10-24T09:44:33;20.50;99.90
8957;DHT22;4513;50.054;8.230;2022-10-24T09:47:03;20.70;99.90
8957;DHT22;4513;50.054;8.230;2022-10-24T09:49:36;21.20;99.90
8957;DHT22;4513;50.054;8.230;2022-10-24T09:52:16;20.40;99.90
8957;DHT22;4513;50.054;8.230;2022-10-24T09:54:44;20.80;99.90
8957;DHT22;4513;50.054;8.230;2022-10-24T09:57:14;20.80;99.90
8957;DHT22;4513;50.054;8.230;2022-10-24T09:59:43;20.90;99.90
8957;DHT22;4513;50.054;8.230;2022-10-24T10:02:16;21.00;99.90
8957;DHT22;4513;50.054;8.230;2022-10-24T10:04:45;21.30;99.90
8957;DHT22;4513;50.054;8.230;2022-10-24T10:07:15;21.60;99.90
8957;DHT22;4513;50.054;8.230;2022-10-24T10:09:48;21.60;99.90
8957;DHT22;4513;50.054;8.230;2022-10-24T10:12:25;21.20;99.90
8957;DHT22;4513;50.054;8.230;2022-10-24T10:14:52;21.20;99.90
8957;DHT22;4513;50.054;8.230;2022-10-24T10:17:21;21.20;99.90
8957;DHT22;4513;50.054;8.230;2022-10-24T10:19:49;21.20;99.90
8957;DHT22;4513;50.054;8.230;2022-10-24T10:22:22;20.90;99.90
8957;DHT22;4513;50.054;8.230;2022-10-24T10:24:49;20.90;99.90
8957;DHT22;4513;50.054;8.230;2022-10-24T10:27:30;20.80;99.90
8957;DHT22;4513;50.054;8.230;2022-10-24T10:32:55;21.00;99.90
8957;DHT22;4513;50.054;8.230;2022-10-24T10:35:23;21.00;99.90
8957;DHT22;4513;50.054;8.230;2022-10-24T10:37:54;21.00;99.90
8957;DHT22;4513;50.054;8.230;2022-10-24T10:40:25;20.90;99.90
8957;DHT22;4513;50.054;8.230;2022-10-24T10:42:56;21.00;99.90
8957;DHT22;4513;50.054;8.230;2022-10-24T10:45:31;21.20;99.90
8957;DHT22;4513;50.054;8.230;2022-10-24T10:48:04;21.10;99.90
8957;DHT22;4513;50.054;8.230;2022-10-24T10:50:36;21.10;99.90
8957;DHT22;4513;50.054;8.230;2022-10-24T10:53:10;21.20;99.90
8957;DHT22;4513;50.054;8.230;2022-10-24T10:55:42;21.30;99.90
8957;DHT22;4513;50.054;8.230;2022-10-24T10:58:16;20.70;99.90
8957;DHT22;4513;50.054;8.230;2022-10-24T11:00:46;20.50;99.90
8957;DHT22;4513;50.054;8.230;2022-10-24T11:09:09;20.50;99.90
8957;DHT22;4513;50.054;8.230;2022-10-24T11:11:40;20.30;99.90
8957;DHT22;4513;50.054;8.230;2022-10-24T11:14:12;20.10;99.90
8957;DHT22;4513;50.054;8.230;2022-10-24T11:16:40;20.10;99.90
8957;DHT22;4513;50.054;8.230;2022-10-24T11:19:20;20.00;99.90
8957;DHT22;4513;50.054;8.230;2022-10-24T11:21:48;19.80;99.90
8957;DHT22;4513;50.054;8.230;2022-10-24T11:24:17;19.70;99.90
8957;DHT22;4513;50.054;8.230;2022-10-24T11:26:47;19.60;99.90
8957;DHT22;4513;50.054;8.230;2022-10-24T11:29:17;19.60;99.90
8957;DHT22;4513;50.054;8.230;2022-10-24T11:31:45;19.60;99.90
8957;DHT22;4513;50.054;8.230;2022-10-24T11:34:14;19.60;99.90
8957;DHT22;4513;50.054;8.230;2022-10-24T11:36:44;19.70;99.90
8957;DHT22;4513;50.054;8.230;2022-10-24T11:39:14;20.00;99.90
8957;DHT22;4513;50.054;8.230;2022-10-24T11:41:53;20.10;99.90
8957;DHT22;4513;50.054;8.230;2022-10-24T11:44:29;20.30;99.90
8957;DHT22;4513;50.054;8.230;2022-10-24T11:47:00;20.50;99.90
8957;DHT22;4513;50.054;8.230;2022-10-24T11:49:30;20.50;99.90
8957;DHT22;4513;50.054;8.230;2022-10-24T11:52:00;20.60;99.90
8957;DHT22;4513;50.054;8.230;2022-10-24T11:54:30;20.60;99.90
8957;DHT22;4513;50.054;8.230;2022-10-24T11:57:01;20.70;99.90
8957;DHT22;4513;50.054;8.230;2022-10-24T11:59:32;20.80;99.90
8957;DHT22;4513;50.054;8.230;2022-10-24T12:05:06;20.80;99.90
8957;DHT22;4513;50.054;8.230;2022-10-24T12:07:40;20.60;99.90
8957;DHT22;4513;50.054;8.230;2022-10-24T12:10:16;20.50;99.90
8957;DHT22;4513;50.054;8.230;2022-10-24T12:12:51;20.50;99.90
8957;DHT22;4513;50.054;8.230;2022-10-24T12:15:26;20.50;99.90
8957;DHT22;4513;50.054;8.230;2022-10-24T12:17:58;20.50;99.90
8957;DHT22;4513;50.054;8.230;2022-10-24T12:20:26;20.60;99.90
8957;DHT22;4513;50.054;8.230;2022-10-24T12:22:53;20.70;99.90
8957;DHT22;4513;50.054;8.230;2022-10-24T12:25:21;20.70;99.90
8957;DHT22;4513;50.054;8.230;2022-10-24T12:27:54;20.80;99.90
8957;DHT22;4513;50.054;8.230;2022-10-24T12:30:21;20.80;99.90
8957;DHT22;4513;50.054;8.230;2022-10-24T12:32:50;20.90;99.90
8957;DHT22;4513;50.054;8.230;2022-10-24T12:35:31;20.90;99.90
8957;DHT22;4513;50.054;8.230;2022-10-24T12:37:58;20.70;99.90
8957;DHT22;4513;50.054;8.230;2022-10-24T12:43:16;20.90;99.90
8957;DHT22;4513;50.054;8.230;2022-10-24T12:45:51;20.90;99.90
8957;DHT22;4513;50.054;8.230;2022-10-24T12:48:27;20.90;99.90
8957;DHT22;4513;50.054;8.230;2022-10-24T12:50:59;20.90;99.90
8957;DHT22;4513;50.054;8.230;2022-10-24T12:53:33;20.90;99.90
8957;DHT22;4513;50.054;8.230;2022-10-24T12:56:07;21.00;99.90
8957;DHT22;4513;50.054;8.230;2022-10-24T12:58:35;21.10;99.90
8957;DHT22;4513;50.054;8.230;2022-10-24T13:01:03;21.10;99.90
8957;DHT22;4513;50.054;8.230;2022-10-24T13:03:42;21.00;99.70
8957;DHT22;4513;50.054;8.230;2022-10-24T13:06:11;21.00;99.90
8957;DHT22;4513;50.054;8.230;2022-10-24T13:08:42;21.00;99.90
8957;DHT22;4513;50.054;8.230;2022-10-24T13:11:19;21.00;99.90
8957;DHT22;4513;50.054;8.230;2022-10-24T13:16:37;20.80;99.90
8957;DHT22;4513;50.054;8.230;2022-10-24T13:19:11;20.80;99.90
8957;DHT22;4513;50.054;8.230;2022-10-24T13:21:43;20.80;99.90
8957;DHT22;4513;50.054;8.230;2022-10-24T13:24:18;20.60;99.90
8957;DHT22;4513;50.054;8.230;2022-10-24T13:26:46;20.40;99.90
8957;DHT22;4513;50.054;8.230;2022-10-24T13:29:14;20.20;99.90
8957;DHT22;4513;50.054;8.230;2022-10-24T13:31:43;20.20;99.90
8957;DHT22;4513;50.054;8.230;2022-10-24T13:34:18;20.20;99.90
8957;DHT22;4513;50.054;8.230;2022-10-24T13:36:45;20.10;99.90
8957;DHT22;4513;50.054;8.230;2022-10-24T13:39:14;20.10;99.90
8957;DHT22;4513;50.054;8.230;2022-10-24T13:41:42;20.00;99.90
8957;DHT22;4513;50.054;8.230;2022-10-24T13:44:13;20.00;99.90
8957;DHT22;4513;50.054;8.230;2022-10-24T13:46:45;20.10;99.90
8957;DHT22;4513;50.054;8.230;2022-10-24T13:49:15;20.00;99.90
8957;DHT22;4513;50.054;8.230;2022-10-24T13:51:43;20.00;99.90
8957;DHT22;4513;50.054;8.230;2022-10-24T13:54:13;20.10;99.90
8957;DHT22;4513;50.054;8.230;2022-10-24T13:56:43;20.10;99.90
8957;DHT22;4513;50.054;8.230;2022-10-24T14:01:56;20.20;99.90
8957;DHT22;4513;50.054;8.230;2022-10-24T14:04:24;20.10;99.90
8957;DHT22;4513;50.054;8.230;2022-10-24T14:06:51;20.20;99.90
8957;DHT22;4513;50.054;8.230;2022-10-24T14:09:17;20.10;99.90
8957;DHT22;4513;50.054;8.230;2022-10-24T14:11:45;20.00;99.90
8957;DHT22;4513;50.054;8.230;2022-10-24T14:14:21;19.90;99.90
8957;DHT22;4513;50.054;8.230;2022-10-24T14:17:00;19.90;99.90
8957;DHT22;4513;50.054;8.230;2022-10-24T14:19:30;19.80;99.90
8957;DHT22;4513;50.054;8.230;2022-10-24T14:21:58;19.80;99.90
8957;DHT22;4513;50.054;8.230;2022-10-24T14:24:25;19.80;99.90
8957;DHT22;4513;50.054;8.230;2022-10-24T14:26:51;19.70;99.90
8957;DHT22;4513;50.054;8.230;2022-10-24T14:29:21;19.70;99.90
8957;DHT22;4513;50.054;8.230;2022-10-24T14:31:52;19.80;99.90
8957;DHT22;4513;50.054;8.230;2022-10-24T14:34:21;19.80;99.90
8957;DHT22;4513;50.054;8.230;2022-10-24T14:36:48;19.80;99.90
8957;DHT22;4513;50.054;8.230;2022-10-24T14:39:15;19.80;99.90
8957;DHT22;4513;50.054;8.230;2022-10-24T14:41:48;19.80;99.90
8957;DHT22;4513;50.054;8.230;2022-10-24T14:44:15;19.80;99.90
8957;DHT22;4513;50.054;8.230;2022-10-24T14:46:42;19.80;99.90
8957;DHT22;4513;50.054;8.230;2022-10-24T14:49:20;19.80;99.90
8957;DHT22;4513;50.054;8.230;2022-10-24T14:51:47;19.80;99.90
8957;DHT22;4513;50.054;8.230;2022-10-24T14:54:16;19.80;99.90
8957;DHT22;4513;50.054;8.230;2022-10-24T14:56:45;19.70;99.90
8957;DHT22;4513;50.054;8.230;2022-10-24T14:59:22;19.60;99.90
8957;DHT22;4513;50.054;8.230;2022-10-24T15:01:54;19.50;99.90
8957;DHT22;4513;50.054;8.230;2022-10-24T15:04:29;19.50;99.90
8957;DHT22;4513;50.054;8.230;2022-10-24T15:06:56;19.40;99.90
8957;DHT22;4513;50.054;8.230;2022-10-24T15:09:23;19.30;99.90
8957;DHT22;4513;50.054;8.230;2022-10-24T15:11:57;19.30;99.90
8957;DHT22;4513;50.054;8.230;2022-10-24T15:14:31;19.20;99.90
8957;DHT22;4513;50.054;8.230;2022-10-24T15:16:59;19.20;99.90
8957;DHT22;4513;50.054;8.230;2022-10-24T15:19:29;19.10;99.90
8957;DHT22;4513;50.054;8.230;2022-10-24T15:22:01;19.00;99.90
8957;DHT22;4513;50.054;8.230;2022-10-24T15:24:28;18.90;99.90
8957;DHT22;4513;50.054;8.230;2022-10-24T15:27:07;18.80;99.90
8957;DHT22;4513;50.054;8.230;2022-10-24T15:29:34;18.80;99.90
8957;DHT22;4513;50.054;8.230;2022-10-24T15:32:01;18.70;99.90
8957;DHT22;4513;50.054;8.230;2022-10-24T15:34:31;18.70;99.90
8957;DHT22;4513;50.054;8.230;2022-10-24T15:36:58;18.70;99.90
8957;DHT22;4513;50.054;8.230;2022-10-24T15:39:26;18.70;99.90
8957;DHT22;4513;50.054;8.230;2022-10-24T15:41:53;18.70;99.90
8957;DHT22;4513;50.054;8.230;2022-10-24T15:44:21;18.60;99.90
8957;DHT22;4513;50.054;8.230;2022-10-24T15:46:50;18.60;99.90
8957;DHT22;4513;50.054;8.230;2022-10-24T15:49:16;18.60;99.90
8957;DHT22;4513;50.054;8.230;2022-10-24T15:51:45;18.50;99.90
8957;DHT22;4513;50.054;8.230;2022-10-24T15:54:13;18.50;99.90
8957;DHT22;4513;50.054;8.230;2022-10-24T15:56:40;18.40;99.90
8957;DHT22;4513;50.054;8.230;2022-10-24T15:59:07;18.40;99.90
8957;DHT22;4513;50.054;8.230;2022-10-24T16:01:35;18.40;99.90
8957;DHT22;4513;50.054;8.230;2022-10-24T16:04:03;18.30;99.90
8957;DHT22;4513;50.054;8.230;2022-10-24T16:06:30;18.30;99.90
8957;DHT22;4513;50.054;8.230;2022-10-24T16:09:00;18.20;99.90
8957;DHT22;4513;50.054;8.230;2022-10-24T16:11:26;18.20;99.90
8957;DHT22;4513;50.054;8.230;2022-10-24T16:13:54;18.20;99.90
8957;DHT22;4513;50.054;8.230;2022-10-24T16:16:21;18.10;99.90
8957;DHT22;4513;50.054;8.230;2022-10-24T16:18:47;18.00;99.90
8957;DHT22;4513;50.054;8.230;2022-10-24T16:21:15;17.90;99.90
8957;DHT22;4513;50.054;8.230;2022-10-24T16:23:43;17.80;99.90
8957;DHT22;4513;50.054;8.230;2022-10-24T16:26:11;17.70;99.90
8957;DHT22;4513;50.054;8.230;2022-10-24T16:28:37;17.60;99.90
8957;DHT22;4513;50.054;8.230;2022-10-24T16:31:04;17.50;99.90
8957;DHT22;4513;50.054;8.230;2022-10-24T16:33:31;17.40;99.90
8957;DHT22;4513;50.054;8.230;2022-10-24T16:35:58;17.30;99.90